Flugplatz Laucha

Für EDBL sind keine METAR/TAF Berichte vorhanden.
Es werden die Flugwettermeldungen vom Flugplatz Leipzig Halle in 42 km Entfernung angezeigt.

Bericht für EDDP

vom 14.11. um 09:50 UTC

Wind 10 kt aus 160°

Sichtweite 10 km oder mehr

gute Sicht, keine Wolken < 5000 ft, keine CB, keine Wettererscheinungen (CAVOK)

Temperatur 7.0°C

Taupunkt 1.0°C

Luftfeuchtigkeit 66%

Luftdruck 1008 hPa

keine wesentliche Wetteränderung innerhalb den nächsten 2 Stunden zu erwarten

EDDP 140950Z 16010KT CAVOK 07/01 Q1008 NOSIG

Prognose für EDDP

vom 14.11. um 00:00 UTC

Zwischen 00:00 UTC und 00:00 UTC

Wind 7 kt aus 160°

Sichtweite 10 km oder mehr

keine signifikanten Wettererscheinungen

keine Wolken


Zwischen 00:00 und 00:00 UTC übergehend zu

Wind 10 kt aus 90°

Sichtweite 10 km oder mehr

keine signifikanten Wettererscheinungen

keine Wolken


Zwischen 00:00 und 00:00 UTC übergehend zu

Wind 10 kt aus 90°

Sichtweite 4000 m

feuchter Dunst

aufgebrochene Bewölkung in 500 ft

TAF EDDP 140500Z 1406/1506 16007KT CAVOK BECMG 1410/1413 09010KT BECMG 1420/1423 4000 BR BKN005
Impressum